createdAt,value
2023-02-09T00:00:37.928Z,15.50
2023-02-09T00:03:40.411Z,15.77
2023-02-09T00:06:42.177Z,15.13
2023-02-09T00:09:45.369Z,15.53
2023-02-09T00:13:05.692Z,17.00
2023-02-09T00:16:07.497Z,16.20
2023-02-09T00:19:09.686Z,15.97
2023-02-09T00:22:11.531Z,15.70
2023-02-09T00:25:13.239Z,15.57
2023-02-09T00:28:15.011Z,16.13
2023-02-09T00:31:16.946Z,15.80
2023-02-09T00:34:19.583Z,16.60
2023-02-09T00:37:21.384Z,15.37
2023-02-09T00:40:23.151Z,17.07
2023-02-09T00:43:24.892Z,16.40
2023-02-09T00:46:26.630Z,16.27
2023-02-09T00:49:28.974Z,16.43
2023-02-09T00:52:31.060Z,18.10
2023-02-09T00:55:32.986Z,17.00
2023-02-09T00:58:34.718Z,15.50
2023-02-09T01:01:36.920Z,15.10
2023-02-09T01:04:39.109Z,16.03
2023-02-09T01:07:40.981Z,14.87
2023-02-09T01:10:42.946Z,13.70
2023-02-09T01:13:45.615Z,14.60
2023-02-09T01:16:47.526Z,14.73
2023-02-09T01:19:56.174Z,15.20
2023-02-09T01:22:57.955Z,13.63
2023-02-09T01:26:05.090Z,14.40
2023-02-09T01:29:06.842Z,14.10
2023-02-09T01:32:08.690Z,14.37
2023-02-09T01:35:11.033Z,13.93
2023-02-09T01:38:12.775Z,13.67
2023-02-09T01:41:14.720Z,14.63
2023-02-09T01:44:16.466Z,13.43
2023-02-09T01:47:19.998Z,14.27
2023-02-09T01:50:23.757Z,13.43
2023-02-09T01:53:27.404Z,13.30
2023-02-09T01:56:31.649Z,13.40
2023-02-09T01:59:35.834Z,13.70
2023-02-09T02:02:38.435Z,12.27
2023-02-09T02:05:45.687Z,12.57
2023-02-09T02:09:01.026Z,12.03
2023-02-09T02:12:03.774Z,12.23
2023-02-09T02:15:06.753Z,11.27
2023-02-09T02:18:17.074Z,11.53
2023-02-09T02:22:03.744Z,12.27
2023-02-09T02:25:50.891Z,11.63
2023-02-09T02:29:25.359Z,11.23
2023-02-09T02:32:30.311Z,11.60
2023-02-09T02:35:38.948Z,11.43
2023-02-09T02:39:00.884Z,11.70
2023-02-09T02:42:36.499Z,11.77
2023-02-09T02:45:49.554Z,11.37
2023-02-09T02:49:25.997Z,11.43
2023-02-09T02:52:27.860Z,11.33
2023-02-09T02:55:32.258Z,11.00
2023-02-09T02:58:36.661Z,11.70
2023-02-09T03:01:48.407Z,11.23
2023-02-09T03:04:53.795Z,11.37
2023-02-09T03:07:55.627Z,11.93
2023-02-09T03:10:57.596Z,12.03
2023-02-09T03:14:25.642Z,11.80
2023-02-09T03:17:48.431Z,11.33
2023-02-09T03:20:53.340Z,10.67
2023-02-09T03:24:03.373Z,11.20
2023-02-09T03:27:18.550Z,10.70
2023-02-09T03:30:21.875Z,10.63
2023-02-09T03:33:27.129Z,11.07
2023-02-09T03:36:34.625Z,11.10
2023-02-09T03:39:36.529Z,10.70
2023-02-09T03:42:38.299Z,10.73
2023-02-09T03:45:41.546Z,11.23
2023-02-09T03:48:43.515Z,11.50
2023-02-09T03:51:45.416Z,11.20
2023-02-09T03:54:47.881Z,11.57
2023-02-09T03:57:49.732Z,10.90
2023-02-09T04:00:51.695Z,11.07
2023-02-09T04:03:53.513Z,10.73
2023-02-09T04:06:56.254Z,10.40
2023-02-09T04:09:58.240Z,10.60
2023-02-09T04:12:59.980Z,10.97
2023-02-09T04:16:01.757Z,11.17
2023-02-09T04:19:05.071Z,10.60
2023-02-09T04:22:08.432Z,11.60
2023-02-09T04:25:10.678Z,10.30
2023-02-09T04:28:12.643Z,10.73
2023-02-09T04:31:14.959Z,9.70
2023-02-09T04:34:17.511Z,10.90
2023-02-09T04:37:20.999Z,11.10
2023-02-09T04:40:25.891Z,9.83
2023-02-09T04:43:28.607Z,10.53
2023-02-09T04:46:30.501Z,10.43
2023-02-09T04:49:32.907Z,11.53
2023-02-09T04:52:34.799Z,11.20
2023-02-09T04:55:41.370Z,11.10
2023-02-09T04:59:03.207Z,10.60
2023-02-09T05:02:05.116Z,10.53
2023-02-09T05:05:07.442Z,11.27
2023-02-09T05:08:09.941Z,9.90
2023-02-09T05:11:12.575Z,10.03
2023-02-09T05:14:14.353Z,9.77
2023-02-09T05:17:20.911Z,9.77
2023-02-09T05:20:22.692Z,9.07
2023-02-09T05:23:24.414Z,9.47
2023-02-09T05:26:26.242Z,9.47
2023-02-09T05:29:28.087Z,9.60
2023-02-09T05:32:30.244Z,9.63
2023-02-09T05:35:32.079Z,10.17
2023-02-09T05:38:33.819Z,9.50
2023-02-09T05:41:54.093Z,10.57
2023-02-09T05:44:55.889Z,10.43
2023-02-09T05:47:57.638Z,10.63
2023-02-09T05:50:59.389Z,10.43
2023-02-09T05:54:01.316Z,10.03
2023-02-09T05:57:03.434Z,9.87
2023-02-09T06:00:06.721Z,10.07
2023-02-09T06:03:08.574Z,10.43
2023-02-09T06:06:10.340Z,11.03
2023-02-09T06:09:12.445Z,11.37
2023-02-09T06:12:14.234Z,11.23
2023-02-09T06:15:16.452Z,11.63
2023-02-09T06:18:18.237Z,11.40
2023-02-09T06:21:20.188Z,10.73
2023-02-09T06:24:21.996Z,11.23
2023-02-09T06:27:23.789Z,11.30
2023-02-09T06:30:25.562Z,11.00
2023-02-09T06:33:27.532Z,10.23
2023-02-09T06:36:29.298Z,12.47
2023-02-09T06:39:31.086Z,11.53
2023-02-09T06:42:43.996Z,10.33
2023-02-09T06:45:45.957Z,11.00
2023-02-09T06:48:47.723Z,9.83
2023-02-09T06:51:49.744Z,10.57
2023-02-09T06:54:51.656Z,10.30
2023-02-09T06:57:55.508Z,10.07
2023-02-09T07:01:02.925Z,9.93
2023-02-09T07:04:04.760Z,11.20
2023-02-09T07:07:06.689Z,10.07
2023-02-09T07:10:09.809Z,11.40
2023-02-09T07:13:11.575Z,10.93
2023-02-09T07:16:14.338Z,10.17
2023-02-09T07:19:16.223Z,11.17
2023-02-09T07:22:17.999Z,10.20
2023-02-09T07:25:19.758Z,10.17
2023-02-09T07:28:22.149Z,10.70
2023-02-09T07:31:24.067Z,10.17
2023-02-09T07:34:27.232Z,9.97
2023-02-09T07:37:29.088Z,10.87
2023-02-09T07:40:31.043Z,11.07
2023-02-09T07:43:33.316Z,11.37
2023-02-09T07:46:36.030Z,10.90
2023-02-09T07:49:37.850Z,10.40
2023-02-09T07:52:39.599Z,11.10
2023-02-09T07:55:41.346Z,10.40
2023-02-09T07:58:43.261Z,11.33
2023-02-09T08:01:45.061Z,10.27
2023-02-09T08:04:47.284Z,11.80
2023-02-09T08:07:49.101Z,10.23
2023-02-09T08:10:51.606Z,10.33
2023-02-09T08:13:56.632Z,11.10
2023-02-09T08:17:23.244Z,10.73
2023-02-09T08:20:30.004Z,10.50
2023-02-09T08:23:34.991Z,10.97
2023-02-09T08:26:36.960Z,12.57
2023-02-09T08:29:38.756Z,12.20
2023-02-09T08:32:40.556Z,12.23
2023-02-09T08:35:43.029Z,12.23
2023-02-09T08:38:45.020Z,11.77
2023-02-09T08:41:46.828Z,11.93
2023-02-09T08:44:48.659Z,12.10
2023-02-09T08:47:50.505Z,12.37
2023-02-09T08:50:52.311Z,12.37
2023-02-09T08:53:54.097Z,13.33
2023-02-09T08:56:55.896Z,12.00
2023-02-09T08:59:57.728Z,12.30
2023-02-09T09:03:03.712Z,14.07
2023-02-09T09:06:08.242Z,14.20
2023-02-09T09:09:10.050Z,13.10
2023-02-09T09:12:11.878Z,15.67
2023-02-09T09:15:13.824Z,13.70
2023-02-09T09:18:15.842Z,14.23
2023-02-09T09:21:18.983Z,11.30
2023-02-09T09:24:21.229Z,11.40
2023-02-09T09:27:24.776Z,12.20
2023-02-09T09:30:27.885Z,15.47
2023-02-09T09:33:29.649Z,19.77
2023-02-09T09:36:31.525Z,13.50
2023-02-09T09:39:33.369Z,14.23
2023-02-09T09:42:41.271Z,12.27
2023-02-09T09:45:43.292Z,10.90
2023-02-09T09:48:57.301Z,11.70
2023-02-09T09:52:29.931Z,10.80
2023-02-09T09:55:32.762Z,12.40
2023-02-09T09:58:39.120Z,26.60
2023-02-09T10:01:40.948Z,12.80
2023-02-09T10:04:42.917Z,12.13
2023-02-09T10:07:57.735Z,11.90
2023-02-09T10:11:11.312Z,12.63
2023-02-09T10:14:13.131Z,11.17
2023-02-09T10:17:14.875Z,11.67
2023-02-09T10:20:16.693Z,11.33
2023-02-09T10:23:20.194Z,12.50
2023-02-09T10:26:24.851Z,10.80
2023-02-09T10:29:26.831Z,10.83
2023-02-09T10:32:43.004Z,11.77
2023-02-09T10:35:51.029Z,10.23
2023-02-09T10:39:03.198Z,10.73
2023-02-09T10:42:24.485Z,11.00
2023-02-09T10:45:37.620Z,11.20
2023-02-09T10:48:41.772Z,10.73
2023-02-09T10:51:43.619Z,10.80
2023-02-09T10:54:59.696Z,10.57
2023-02-09T10:58:19.817Z,12.03
2023-02-09T11:01:42.004Z,12.37
2023-02-09T11:04:48.684Z,12.20
2023-02-09T11:08:13.708Z,10.27
2023-02-09T11:11:24.469Z,9.43
2023-02-09T11:14:26.806Z,11.27
2023-02-09T11:17:40.969Z,10.20
2023-02-09T11:20:57.987Z,9.90
2023-02-09T11:24:12.290Z,9.80
2023-02-09T11:27:26.314Z,9.30
2023-02-09T11:31:01.862Z,9.50
2023-02-09T11:34:26.306Z,9.27
2023-02-09T11:37:30.459Z,9.43
2023-02-09T11:40:41.340Z,10.50
2023-02-09T11:43:45.307Z,9.90
2023-02-09T11:46:52.432Z,10.33
2023-02-09T11:49:56.591Z,10.60
2023-02-09T11:53:21.505Z,10.63
2023-02-09T11:56:26.146Z,10.23
2023-02-09T11:59:30.609Z,10.57
2023-02-09T12:03:00.291Z,9.90
2023-02-09T12:06:02.912Z,9.30
2023-02-09T12:09:10.391Z,10.43
2023-02-09T12:12:44.091Z,10.17
2023-02-09T12:15:55.471Z,10.23
2023-02-09T12:18:57.320Z,10.80
2023-02-09T12:22:19.184Z,10.53
2023-02-09T12:25:38.688Z,10.27
2023-02-09T12:28:42.681Z,9.53
2023-02-09T12:32:04.738Z,10.43
2023-02-09T12:35:28.476Z,9.07
2023-02-09T12:39:04.773Z,8.47
2023-02-09T12:42:06.890Z,9.63
2023-02-09T12:45:33.781Z,9.03
2023-02-09T12:49:09.001Z,9.00
2023-02-09T12:52:16.912Z,8.43
2023-02-09T12:55:22.923Z,8.73
2023-02-09T12:58:40.262Z,9.07
2023-02-09T13:02:11.113Z,8.57
2023-02-09T13:05:17.317Z,8.77
2023-02-09T13:08:36.578Z,8.83
2023-02-09T13:11:51.592Z,8.20
2023-02-09T13:14:53.560Z,9.30
2023-02-09T13:18:20.093Z,9.00
2023-02-09T13:21:34.162Z,8.73
2023-02-09T13:24:44.183Z,7.97
2023-02-09T13:27:49.371Z,8.50
2023-02-09T13:30:51.211Z,8.80
2023-02-09T13:33:59.090Z,9.17
2023-02-09T13:37:19.819Z,8.87
2023-02-09T13:40:25.975Z,9.97
2023-02-09T13:43:34.734Z,9.20
2023-02-09T13:46:36.788Z,9.23
2023-02-09T13:49:38.911Z,10.83
2023-02-09T13:52:41.042Z,10.10
2023-02-09T13:55:45.475Z,8.83
2023-02-09T13:58:47.967Z,9.77
2023-02-09T14:01:49.835Z,9.30
2023-02-09T14:04:57.281Z,10.43
2023-02-09T14:07:59.682Z,9.27
2023-02-09T14:11:04.589Z,8.87
2023-02-09T14:14:19.607Z,9.07
2023-02-09T14:17:25.939Z,9.33
2023-02-09T14:20:27.971Z,9.40
2023-02-09T14:23:33.003Z,8.67
2023-02-09T14:26:42.527Z,9.20
2023-02-09T14:29:47.475Z,9.47
2023-02-09T14:32:57.723Z,9.70
2023-02-09T14:36:01.898Z,8.47
2023-02-09T14:39:16.761Z,8.23
2023-02-09T14:42:18.679Z,9.10
2023-02-09T14:45:48.374Z,9.27
2023-02-09T14:48:51.801Z,9.23
2023-02-09T14:52:04.346Z,8.83
2023-02-09T14:55:15.172Z,8.63
2023-02-09T14:58:27.743Z,8.83
2023-02-09T15:01:29.565Z,9.30
2023-02-09T15:04:31.427Z,8.10
2023-02-09T15:07:37.118Z,8.63
2023-02-09T15:10:44.978Z,9.00
2023-02-09T15:13:47.816Z,9.10
2023-02-09T15:16:49.985Z,9.57
2023-02-09T15:19:52.395Z,9.60
2023-02-09T15:22:55.519Z,10.03
2023-02-09T15:25:57.475Z,10.80
2023-02-09T15:28:59.193Z,9.63
2023-02-09T15:32:01.045Z,9.57
2023-02-09T15:35:02.838Z,9.93
2023-02-09T15:38:04.747Z,9.47
2023-02-09T15:41:25.363Z,9.07
2023-02-09T15:44:45.575Z,9.60
2023-02-09T15:47:50.403Z,10.90
2023-02-09T15:50:52.351Z,11.23
2023-02-09T15:53:56.085Z,12.50
2023-02-09T15:56:58.800Z,12.43
2023-02-09T16:00:00.585Z,10.70
2023-02-09T16:03:03.062Z,9.57
2023-02-09T16:06:12.938Z,9.23
2023-02-09T16:09:21.693Z,9.67
2023-02-09T16:12:23.489Z,10.13
2023-02-09T16:15:26.410Z,9.83
2023-02-09T16:18:28.326Z,10.43
2023-02-09T16:21:33.466Z,9.87
2023-02-09T16:24:45.521Z,9.67
2023-02-09T16:27:47.968Z,10.10
2023-02-09T16:30:55.185Z,13.17
2023-02-09T16:33:57.274Z,15.53
2023-02-09T16:36:59.077Z,15.20
2023-02-09T16:40:02.200Z,17.57
2023-02-09T16:43:05.748Z,13.40
2023-02-09T16:46:07.759Z,12.13
2023-02-09T16:49:26.612Z,13.30
2023-02-09T16:52:30.395Z,13.53
2023-02-09T16:55:35.098Z,13.80
2023-02-09T16:58:37.660Z,14.00
2023-02-09T17:01:39.665Z,15.13
2023-02-09T17:04:41.454Z,15.17
2023-02-09T17:07:53.856Z,16.57
2023-02-09T17:10:56.739Z,15.47
2023-02-09T17:13:58.479Z,14.80
2023-02-09T17:17:02.656Z,16.53
2023-02-09T17:20:04.786Z,14.83
2023-02-09T17:23:06.680Z,14.00
2023-02-09T17:26:08.520Z,13.63
2023-02-09T17:29:10.864Z,13.07
2023-02-09T17:32:15.633Z,13.20
2023-02-09T17:35:44.485Z,12.37
2023-02-09T17:38:44.821Z,12.07
2023-02-09T17:41:48.587Z,12.00
2023-02-09T17:44:51.425Z,12.73
2023-02-09T17:47:57.624Z,12.97
2023-02-09T17:51:00.614Z,15.70
2023-02-09T17:54:03.969Z,30.43
2023-02-09T17:57:05.858Z,26.07
2023-02-09T18:00:08.303Z,21.23
2023-02-09T18:03:22.273Z,20.47
2023-02-09T18:06:33.683Z,23.77
2023-02-09T18:09:35.563Z,20.23
2023-02-09T18:12:37.303Z,19.43
2023-02-09T18:15:40.555Z,19.93
2023-02-09T18:18:43.043Z,19.43
2023-02-09T18:22:03.572Z,19.97
2023-02-09T18:25:05.614Z,20.27
2023-02-09T18:28:08.418Z,19.87
2023-02-09T18:31:15.435Z,19.87
2023-02-09T18:34:17.372Z,18.27
2023-02-09T18:37:19.333Z,18.90
2023-02-09T18:40:21.183Z,22.30
2023-02-09T18:43:22.976Z,25.37
2023-02-09T18:46:26.951Z,23.87
2023-02-09T18:49:29.657Z,26.83
2023-02-09T18:52:31.567Z,26.27
2023-02-09T18:55:35.283Z,27.90
2023-02-09T18:58:38.004Z,27.37
2023-02-09T19:01:41.081Z,27.93
2023-02-09T19:04:43.851Z,23.47
2023-02-09T19:07:47.106Z,24.17
2023-02-09T19:10:48.871Z,23.53
2023-02-09T19:14:09.519Z,24.57
2023-02-09T19:17:17.951Z,25.20
2023-02-09T19:20:22.151Z,21.93
2023-02-09T19:23:24.935Z,21.77
2023-02-09T19:26:26.762Z,20.27
2023-02-09T19:29:28.985Z,20.33
2023-02-09T19:32:30.870Z,20.47
2023-02-09T19:35:32.870Z,20.27
2023-02-09T19:38:34.748Z,20.07
2023-02-09T19:41:36.641Z,20.03
2023-02-09T19:44:39.042Z,22.37
2023-02-09T19:47:40.972Z,20.07
2023-02-09T19:50:42.818Z,20.77
2023-02-09T19:53:44.535Z,19.63
2023-02-09T19:56:46.328Z,19.83
2023-02-09T19:59:48.269Z,20.90
2023-02-09T20:02:50.179Z,21.70
2023-02-09T20:05:52.137Z,19.03
2023-02-09T20:08:54.012Z,18.57
2023-02-09T20:14:58.632Z,22.30
2023-02-09T20:18:00.492Z,19.97
2023-02-09T20:21:03.028Z,20.00
2023-02-09T20:24:09.572Z,19.70
2023-02-09T20:27:11.963Z,19.23
2023-02-09T20:30:14.159Z,18.13
2023-02-09T20:33:16.246Z,18.97
2023-02-09T20:36:18.662Z,18.53
2023-02-09T20:39:23.349Z,17.67
2023-02-09T20:42:44.204Z,17.90
2023-02-09T20:46:04.822Z,16.23
2023-02-09T20:49:08.849Z,16.63
2023-02-09T20:52:11.490Z,16.47
2023-02-09T20:55:13.592Z,17.83
2023-02-09T20:58:15.467Z,16.37
2023-02-09T21:01:17.503Z,16.73
2023-02-09T21:04:19.794Z,15.90
2023-02-09T21:07:21.665Z,16.60
2023-02-09T21:10:23.587Z,15.03
2023-02-09T21:13:25.457Z,15.27
2023-02-09T21:16:28.083Z,14.27
2023-02-09T21:19:30.431Z,14.63
2023-02-09T21:22:32.448Z,14.27
2023-02-09T21:25:35.277Z,14.40
2023-02-09T21:28:37.405Z,15.40
2023-02-09T21:31:39.357Z,15.47
2023-02-09T21:34:42.783Z,16.00
2023-02-09T21:37:44.737Z,16.07
2023-02-09T21:40:46.710Z,15.57
2023-02-09T21:43:48.827Z,15.80
2023-02-09T21:46:50.968Z,14.27
2023-02-09T21:49:53.039Z,14.00
2023-02-09T21:52:54.901Z,14.47
2023-02-09T21:55:56.799Z,15.13
2023-02-09T21:58:58.797Z,14.97
2023-02-09T22:02:00.624Z,14.63
2023-02-09T22:05:02.722Z,15.17
2023-02-09T22:08:04.671Z,14.47
2023-02-09T22:11:07.000Z,15.87
2023-02-09T22:14:09.632Z,15.43
2023-02-09T22:17:11.362Z,15.97
2023-02-09T22:20:13.188Z,16.20
2023-02-09T22:23:15.616Z,17.00
2023-02-09T22:26:17.385Z,16.67
2023-02-09T22:29:19.358Z,15.93
2023-02-09T22:32:21.184Z,16.60
2023-02-09T22:35:23.376Z,16.50
2023-02-09T22:38:25.368Z,17.07
2023-02-09T22:41:27.245Z,16.60
2023-02-09T22:44:30.431Z,16.03
2023-02-09T22:47:32.736Z,16.73
2023-02-09T22:50:36.358Z,14.90
2023-02-09T22:53:38.156Z,14.27
2023-02-09T22:56:40.275Z,14.57
2023-02-09T22:59:42.806Z,15.27
2023-02-09T23:02:44.593Z,14.37
2023-02-09T23:05:46.664Z,15.70
2023-02-09T23:08:51.576Z,14.33
2023-02-09T23:11:53.519Z,15.37
2023-02-09T23:14:55.288Z,14.83
2023-02-09T23:17:57.200Z,14.37
2023-02-09T23:21:02.848Z,14.47
2023-02-09T23:24:05.221Z,14.87
2023-02-09T23:27:06.968Z,14.67
2023-02-09T23:30:09.597Z,13.57
2023-02-09T23:33:11.488Z,14.50
2023-02-09T23:36:16.788Z,14.07
2023-02-09T23:39:20.685Z,14.07
2023-02-09T23:42:22.455Z,13.57
2023-02-09T23:45:24.248Z,14.60
2023-02-09T23:48:26.009Z,14.23
2023-02-09T23:51:33.681Z,15.77
2023-02-09T23:54:35.435Z,13.70
2023-02-09T23:57:37.452Z,14.97
